createdAt,value
2022-08-01T00:01:34.561Z,99371.50
2022-08-01T00:04:05.046Z,99368.16
2022-08-01T00:06:34.622Z,99365.09
2022-08-01T00:09:03.239Z,99358.84
2022-08-01T00:11:31.768Z,99357.84
2022-08-01T00:14:00.306Z,99353.84
2022-08-01T00:16:30.178Z,99343.28
2022-08-01T00:18:59.771Z,99348.44
2022-08-01T00:21:28.248Z,99342.09
2022-08-01T00:23:55.979Z,99352.03
2022-08-01T00:26:23.695Z,99342.75
2022-08-01T00:28:52.210Z,99341.34
2022-08-01T00:31:21.756Z,99335.94
2022-08-01T00:33:49.643Z,99343.22
2022-08-01T00:36:18.161Z,99343.66
2022-08-01T00:38:45.908Z,99342.28
2022-08-01T00:41:13.835Z,99336.63
2022-08-01T00:43:42.460Z,99341.13
2022-08-01T00:46:10.178Z,99342.66
2022-08-01T00:48:38.708Z,99327.28
2022-08-01T00:51:07.453Z,99331.41
2022-08-01T00:53:50.816Z,99325.44
2022-08-01T00:56:26.913Z,99316.00
2022-08-01T00:58:56.848Z,99323.16
2022-08-01T01:01:24.980Z,99320.00
2022-08-01T01:04:08.816Z,99324.31
2022-08-01T01:09:59.621Z,99320.91
2022-08-01T01:12:57.475Z,99313.44
2022-08-01T01:15:46.270Z,99315.19
2022-08-01T01:18:42.592Z,99321.91
2022-08-01T01:21:47.464Z,99325.72
2022-08-01T01:25:11.110Z,99318.56
2022-08-01T01:28:10.195Z,99334.81
2022-08-01T01:30:44.738Z,99326.25
2022-08-01T01:33:14.793Z,99325.91
2022-08-01T01:35:50.336Z,99315.16
2022-08-01T01:38:30.670Z,99317.25
2022-08-01T01:41:04.098Z,99311.34
2022-08-01T01:43:34.698Z,99313.34
2022-08-01T01:46:05.122Z,99316.63
2022-08-01T01:48:35.125Z,99318.03
2022-08-01T01:51:05.910Z,99315.19
2022-08-01T01:53:37.708Z,99311.22
2022-08-01T01:56:05.854Z,99310.81
2022-08-01T01:58:36.586Z,99305.69
2022-08-01T02:01:14.295Z,99311.53
2022-08-01T02:03:44.929Z,99305.81
2022-08-01T02:06:17.110Z,99304.84
2022-08-01T02:08:47.472Z,99296.44
2022-08-01T02:11:19.197Z,99307.16
2022-08-01T02:14:00.401Z,99301.75
2022-08-01T02:16:35.071Z,99297.72
2022-08-01T02:19:05.061Z,99303.16
2022-08-01T02:22:00.604Z,99294.03
2022-08-01T02:25:06.025Z,99302.88
2022-08-01T02:27:53.580Z,99301.28
2022-08-01T02:30:21.756Z,99299.44
2022-08-01T02:33:02.984Z,99294.25
2022-08-01T02:36:29.664Z,99296.16
2022-08-01T02:38:35.511Z,99301.00
2022-08-01T02:41:13.992Z,99299.97
2022-08-01T02:43:53.044Z,99291.41
2022-08-01T02:46:37.341Z,99288.25
2022-08-01T02:49:11.528Z,99286.75
2022-08-01T02:51:42.882Z,99276.81
2022-08-01T02:54:12.748Z,99289.38
2022-08-01T02:56:43.873Z,99286.53
2022-08-01T02:59:22.487Z,99285.06
2022-08-01T03:02:02.919Z,99293.41
2022-08-01T03:04:35.733Z,99282.84
2022-08-01T03:07:08.921Z,99287.84
2022-08-01T03:09:47.307Z,99298.22
2022-08-01T03:12:26.569Z,99299.28
2022-08-01T03:14:58.962Z,99294.78
2022-08-01T03:17:30.307Z,99302.00
2022-08-01T03:20:00.901Z,99297.72
2022-08-01T03:22:32.227Z,99298.59
2022-08-01T03:25:04.336Z,99297.09
2022-08-01T03:27:32.982Z,99296.78
2022-08-01T03:30:06.838Z,99301.66
2022-08-01T03:32:36.786Z,99303.63
2022-08-01T03:35:05.270Z,99306.53
2022-08-01T03:38:14.342Z,99303.63
2022-08-01T03:41:09.513Z,99312.81
2022-08-01T03:43:49.252Z,99316.28
2022-08-01T03:46:46.676Z,99323.47
2022-08-01T03:49:24.003Z,99318.59
2022-08-01T03:51:54.421Z,99320.63
2022-08-01T03:54:26.911Z,99323.63
2022-08-01T03:56:56.550Z,99323.72
2022-08-01T03:59:25.849Z,99327.66
2022-08-01T04:01:56.793Z,99327.44
2022-08-01T04:04:25.525Z,99325.50
2022-08-01T04:06:55.533Z,99329.41
2022-08-01T04:09:24.450Z,99319.25
2022-08-01T04:11:52.182Z,99327.91
2022-08-01T04:14:20.866Z,99328.63
2022-08-01T04:16:49.944Z,99331.66
2022-08-01T04:19:17.911Z,99335.94
2022-08-01T04:21:45.714Z,99337.78
2022-08-01T04:24:19.055Z,99330.78
2022-08-01T04:26:49.473Z,99334.53
2022-08-01T04:29:20.750Z,99329.16
2022-08-01T04:31:51.664Z,99330.63
2022-08-01T04:34:25.535Z,99337.59
2022-08-01T04:36:57.458Z,99336.75
2022-08-01T04:39:29.801Z,99343.56
2022-08-01T04:42:01.342Z,99351.00
2022-08-01T04:44:32.681Z,99354.66
2022-08-01T04:47:04.400Z,99344.84
2022-08-01T04:49:35.642Z,99349.88
2022-08-01T04:52:24.356Z,99350.50
2022-08-01T04:54:52.467Z,99344.09
2022-08-01T04:57:21.391Z,99346.69
2022-08-01T04:59:50.703Z,99348.28
2022-08-01T05:02:20.811Z,99344.84
2022-08-01T05:04:51.099Z,99347.09
2022-08-01T05:07:19.605Z,99357.41
2022-08-01T05:09:47.426Z,99356.13
2022-08-01T05:12:16.975Z,99353.81
2022-08-01T05:14:47.073Z,99357.03
2022-08-01T05:17:15.031Z,99355.09
2022-08-01T05:19:44.587Z,99354.97
2022-08-01T05:22:14.738Z,99358.13
2022-08-01T05:24:43.663Z,99356.31
2022-08-01T05:27:16.345Z,99357.09
2022-08-01T05:29:44.947Z,99357.75
2022-08-01T05:32:13.292Z,99363.63
2022-08-01T05:34:41.721Z,99357.06
2022-08-01T05:37:11.632Z,99364.44
2022-08-01T05:39:40.178Z,99367.53
2022-08-01T05:42:08.265Z,99366.28
2022-08-01T05:44:37.217Z,99368.66
2022-08-01T05:47:05.114Z,99364.66
2022-08-01T05:49:32.875Z,99370.44
2022-08-01T05:52:03.479Z,99372.22
2022-08-01T05:54:33.610Z,99370.88
2022-08-01T05:57:02.896Z,99375.56
2022-08-01T05:59:31.922Z,99374.13
2022-08-01T06:02:00.541Z,99372.13
2022-08-01T06:04:30.136Z,99376.31
2022-08-01T06:06:58.578Z,99373.06
2022-08-01T06:09:27.061Z,99371.72
2022-08-01T06:11:56.582Z,99369.38
2022-08-01T06:14:25.106Z,99371.47
2022-08-01T06:16:54.592Z,99363.25
2022-08-01T06:19:23.115Z,99371.09
2022-08-01T06:21:51.526Z,99370.59
2022-08-01T06:24:21.174Z,99374.19
2022-08-01T06:26:51.218Z,99376.72
2022-08-01T06:29:20.712Z,99382.66
2022-08-01T06:31:49.120Z,99373.06
2022-08-01T06:34:17.581Z,99371.66
2022-08-01T06:36:47.046Z,99376.69
2022-08-01T06:39:15.516Z,99377.97
2022-08-01T06:41:47.377Z,99379.47
2022-08-01T06:44:15.901Z,99388.06
2022-08-01T06:46:45.397Z,99381.91
2022-08-01T06:49:13.841Z,99382.59
2022-08-01T06:51:42.460Z,99388.47
2022-08-01T06:54:10.832Z,99391.72
2022-08-01T06:56:39.266Z,99394.06
2022-08-01T06:59:08.812Z,99403.97
2022-08-01T07:01:38.356Z,99392.97
2022-08-01T07:04:09.105Z,99398.44
2022-08-01T07:06:40.239Z,99401.59
2022-08-01T07:09:14.117Z,99402.00
2022-08-01T07:11:43.367Z,99408.06
2022-08-01T07:14:11.847Z,99406.13
2022-08-01T07:16:41.389Z,99411.47
2022-08-01T07:19:09.812Z,99404.72
2022-08-01T07:21:41.354Z,99402.69
2022-08-01T07:24:15.198Z,99402.50
2022-08-01T07:26:54.046Z,99409.50
2022-08-01T07:29:26.139Z,99401.06
2022-08-01T07:31:58.618Z,99404.41
2022-08-01T07:34:27.471Z,99402.72
2022-08-01T07:36:55.978Z,99399.09
2022-08-01T07:39:24.501Z,99403.34
2022-08-01T07:42:07.147Z,99399.66
2022-08-01T07:44:38.182Z,99404.09
2022-08-01T07:47:08.241Z,99402.94
2022-08-01T07:49:40.716Z,99403.91
2022-08-01T07:52:10.376Z,99411.22
2022-08-01T07:54:39.000Z,99408.22
2022-08-01T07:57:08.275Z,99408.22
2022-08-01T07:59:37.121Z,99395.50
2022-08-01T08:02:05.916Z,99398.16
2022-08-01T08:04:34.764Z,99397.41
2022-08-01T08:07:03.801Z,99398.50
2022-08-01T08:09:37.920Z,99404.78
2022-08-01T08:12:08.000Z,99397.28
2022-08-01T08:14:37.140Z,99395.25
2022-08-01T08:17:06.930Z,99400.13
2022-08-01T08:19:39.065Z,99403.88
2022-08-01T08:22:10.275Z,99405.09
2022-08-01T08:24:46.070Z,99393.91
2022-08-01T08:27:16.324Z,99393.41
2022-08-01T08:29:45.274Z,99398.28
2022-08-01T08:32:14.123Z,99387.81
2022-08-01T08:34:42.927Z,99391.19
2022-08-01T08:37:12.239Z,99396.69
2022-08-01T08:39:42.131Z,99394.94
2022-08-01T08:42:13.007Z,99412.69
2022-08-01T08:44:44.542Z,99404.59
2022-08-01T08:47:20.290Z,99405.88
2022-08-01T08:49:55.592Z,99403.56
2022-08-01T08:52:24.787Z,99409.72
2022-08-01T08:54:54.258Z,99410.31
2022-08-01T08:57:23.428Z,99410.25
2022-08-01T08:59:53.723Z,99415.50
2022-08-01T09:02:22.954Z,99414.09
2022-08-01T09:04:52.828Z,99412.56
2022-08-01T09:07:21.328Z,99414.28
2022-08-01T09:09:50.332Z,99418.75
2022-08-01T09:12:21.541Z,99421.63
2022-08-01T09:14:51.462Z,99422.00
2022-08-01T09:17:22.035Z,99428.91
2022-08-01T09:19:59.025Z,99423.63
2022-08-01T09:22:28.068Z,99427.06
2022-08-01T09:25:11.002Z,99418.72
2022-08-01T09:27:44.291Z,99421.16
2022-08-01T09:30:19.424Z,99420.91
2022-08-01T09:33:17.743Z,99413.47
2022-08-01T09:35:58.667Z,99415.84
2022-08-01T09:38:28.422Z,99414.09
2022-08-01T09:41:02.136Z,99419.00
2022-08-01T09:43:32.916Z,99416.91
2022-08-01T09:46:12.909Z,99423.00
2022-08-01T09:48:59.633Z,99414.06
2022-08-01T09:51:59.530Z,99406.63
2022-08-01T09:54:34.477Z,99409.63
2022-08-01T09:57:19.252Z,99400.09
2022-08-01T09:59:58.632Z,99400.81
2022-08-01T10:02:40.303Z,99402.72
2022-08-01T10:05:20.949Z,99396.53
2022-08-01T10:08:07.845Z,99391.53
2022-08-01T10:10:37.308Z,99390.56
2022-08-01T10:13:06.517Z,99392.97
2022-08-01T10:15:38.809Z,99389.81
2022-08-01T10:18:16.648Z,99381.38
2022-08-01T10:20:56.512Z,99387.22
2022-08-01T10:23:40.715Z,99385.34
2022-08-01T10:26:13.878Z,99376.81
2022-08-01T10:28:46.374Z,99380.56
2022-08-01T10:31:15.151Z,99385.97
2022-08-01T10:33:52.784Z,99384.84
2022-08-01T10:36:25.487Z,99377.13
2022-08-01T10:38:59.420Z,99386.81
2022-08-01T10:41:28.127Z,99379.91
2022-08-01T10:43:57.559Z,99374.06
2022-08-01T10:46:26.829Z,99383.72
2022-08-01T10:49:12.448Z,99370.19
2022-08-01T10:51:52.904Z,99372.44
2022-08-01T10:54:28.017Z,99368.63
2022-08-01T10:57:01.755Z,99376.50
2022-08-01T10:59:55.138Z,99365.81
2022-08-01T11:02:41.854Z,99363.31
2022-08-01T11:05:23.922Z,99368.84
2022-08-01T11:07:56.975Z,99376.59
2022-08-01T11:10:45.481Z,99379.56
2022-08-01T11:13:14.217Z,99374.75
2022-08-01T11:15:49.983Z,99367.91
2022-08-01T11:18:30.744Z,99373.16
2022-08-01T11:21:57.129Z,99376.03
2022-08-01T11:23:54.586Z,99367.41
2022-08-01T11:26:28.974Z,99359.53
2022-08-01T11:29:22.668Z,99363.78
2022-08-01T11:31:53.208Z,99362.81
2022-08-01T11:34:21.864Z,99359.25
2022-08-01T11:36:59.659Z,99362.03
2022-08-01T11:39:29.556Z,99364.22
2022-08-01T11:42:21.760Z,99369.66
2022-08-01T11:44:52.502Z,99363.19
2022-08-01T11:47:51.461Z,99368.03
2022-08-01T11:50:39.022Z,99351.13
2022-08-01T11:53:09.430Z,99350.56
2022-08-01T11:55:51.239Z,99367.03
2022-08-01T11:58:29.384Z,99360.66
2022-08-01T12:01:00.635Z,99364.84
2022-08-01T12:03:34.415Z,99352.81
2022-08-01T12:06:03.218Z,99356.31
2022-08-01T12:08:35.419Z,99357.75
2022-08-01T12:11:07.097Z,99356.03
2022-08-01T12:13:46.348Z,99365.81
2022-08-01T12:16:15.547Z,99352.69
2022-08-01T12:18:45.273Z,99358.69
2022-08-01T12:21:13.808Z,99352.34
2022-08-01T12:23:42.263Z,99358.84
2022-08-01T12:26:28.337Z,99347.34
2022-08-01T12:29:00.092Z,99354.78
2022-08-01T12:31:37.505Z,99354.19
2022-08-01T12:34:31.226Z,99349.41
2022-08-01T12:37:03.868Z,99351.13
2022-08-01T12:39:35.234Z,99346.31
2022-08-01T12:42:11.607Z,99343.63
2022-08-01T12:44:44.475Z,99347.13
2022-08-01T12:47:15.150Z,99346.72
2022-08-01T12:49:45.563Z,99335.41
2022-08-01T12:52:14.846Z,99331.75
2022-08-01T12:55:16.102Z,99331.81
2022-08-01T12:57:51.163Z,99348.16
2022-08-01T13:00:27.457Z,99340.41
2022-08-01T13:03:15.796Z,99336.94
2022-08-01T13:05:57.937Z,99339.72
2022-08-01T13:08:34.598Z,99326.97
2022-08-01T13:11:16.879Z,99332.13
2022-08-01T13:13:49.395Z,99322.47
2022-08-01T13:16:34.323Z,99319.69
2022-08-01T13:19:07.738Z,99317.19
2022-08-01T13:21:54.044Z,99311.22
2022-08-01T13:24:30.818Z,99304.88
2022-08-01T13:27:05.093Z,99310.03
2022-08-01T13:29:45.963Z,99310.03
2022-08-01T13:32:27.775Z,99313.28
2022-08-01T13:35:09.355Z,99310.88
2022-08-01T13:37:43.144Z,99313.66
2022-08-01T13:40:13.120Z,99318.16
2022-08-01T13:42:41.537Z,99312.31
2022-08-01T13:45:14.608Z,99315.22
2022-08-01T13:48:03.923Z,99307.47
2022-08-01T13:50:35.020Z,99308.84
2022-08-01T13:53:03.620Z,99307.94
2022-08-01T13:55:34.898Z,99319.97
2022-08-01T13:58:04.511Z,99315.03
2022-08-01T14:00:33.222Z,99310.59
2022-08-01T14:03:01.782Z,99312.97
2022-08-01T14:05:31.835Z,99313.44
2022-08-01T14:08:00.343Z,99313.94
2022-08-01T14:10:30.033Z,99315.38
2022-08-01T14:12:59.824Z,99311.38
2022-08-01T14:15:38.068Z,99313.19
2022-08-01T14:18:10.163Z,99307.78
2022-08-01T14:20:40.931Z,99317.56
2022-08-01T14:23:10.707Z,99325.91
2022-08-01T14:26:00.560Z,99311.06
2022-08-01T14:28:31.215Z,99312.78
2022-08-01T14:31:00.332Z,99316.09
2022-08-01T14:33:30.044Z,99316.78
2022-08-01T14:36:05.468Z,99318.78
2022-08-01T14:38:47.141Z,99318.03
2022-08-01T14:41:18.514Z,99316.06
2022-08-01T14:43:46.874Z,99318.88
2022-08-01T14:46:15.353Z,99310.53
2022-08-01T14:48:43.955Z,99318.13
2022-08-01T14:51:12.478Z,99312.25
2022-08-01T14:53:44.197Z,99318.38
2022-08-01T14:56:19.398Z,99313.56
2022-08-01T14:58:48.690Z,99314.78
2022-08-01T15:01:17.966Z,99318.38
2022-08-01T15:03:47.490Z,99315.13
2022-08-01T15:06:15.909Z,99311.06
2022-08-01T15:08:45.484Z,99310.03
2022-08-01T15:11:13.943Z,99318.50
2022-08-01T15:13:43.093Z,99327.03
2022-08-01T15:16:12.371Z,99317.63
2022-08-01T15:18:43.058Z,99317.66
2022-08-01T15:21:14.545Z,99317.03
2022-08-01T15:23:49.301Z,99327.09
2022-08-01T15:26:17.744Z,99328.00
2022-08-01T15:28:46.159Z,99330.09
2022-08-01T15:31:14.782Z,99324.53
2022-08-01T15:33:43.233Z,99322.88
2022-08-01T15:36:15.231Z,99324.88
2022-08-01T15:38:43.959Z,99313.38
2022-08-01T15:41:12.430Z,99314.00
2022-08-01T15:43:44.174Z,99312.56
2022-08-01T15:46:13.925Z,99303.97
2022-08-01T15:48:42.322Z,99317.72
2022-08-01T15:51:10.802Z,99310.97
2022-08-01T15:53:40.313Z,99313.31
2022-08-01T15:56:08.794Z,99313.97
2022-08-01T15:58:37.395Z,99321.63
2022-08-01T16:01:06.121Z,99312.34
2022-08-01T16:03:34.564Z,99324.03
2022-08-01T16:06:03.666Z,99321.22
2022-08-01T16:08:32.305Z,99329.53
2022-08-01T16:11:01.067Z,99320.41
2022-08-01T16:13:29.538Z,99321.03
2022-08-01T16:15:59.725Z,99317.34
2022-08-01T16:18:28.122Z,99321.63
2022-08-01T16:20:58.893Z,99326.56
2022-08-01T16:23:27.807Z,99327.03
2022-08-01T16:25:56.760Z,99334.25
2022-08-01T16:28:26.587Z,99329.28
2022-08-01T16:31:09.640Z,99325.06
2022-08-01T16:33:53.272Z,99324.34
2022-08-01T16:36:24.812Z,99328.75
2022-08-01T16:38:54.006Z,99325.72
2022-08-01T16:41:22.488Z,99326.28
2022-08-01T16:43:53.422Z,99331.94
2022-08-01T16:46:27.096Z,99337.88
2022-08-01T16:48:56.313Z,99328.72
2022-08-01T16:51:25.348Z,99328.47
2022-08-01T16:53:54.002Z,99324.69
2022-08-01T16:56:22.447Z,99323.97
2022-08-01T16:58:51.357Z,99326.06
2022-08-01T17:02:01.471Z,99321.84
2022-08-01T17:04:09.035Z,99316.97
2022-08-01T17:06:37.492Z,99324.03
2022-08-01T17:09:06.370Z,99331.47
2022-08-01T17:11:35.498Z,99333.06
2022-08-01T17:14:04.687Z,99332.78
2022-08-01T17:16:33.168Z,99331.75
2022-08-01T17:19:02.273Z,99341.78
2022-08-01T17:21:30.906Z,99336.91
2022-08-01T17:24:00.615Z,99341.31
2022-08-01T17:26:29.150Z,99343.66
2022-08-01T17:28:58.027Z,99346.84
2022-08-01T17:31:26.491Z,99342.66
2022-08-01T17:33:55.393Z,99347.72
2022-08-01T17:36:23.980Z,99351.50
2022-08-01T17:38:52.401Z,99354.66
2022-08-01T17:41:20.887Z,99352.88
2022-08-01T17:43:49.325Z,99351.63
2022-08-01T17:46:18.483Z,99347.19
2022-08-01T17:48:47.061Z,99347.91
2022-08-01T17:51:20.682Z,99356.22
2022-08-01T17:53:57.437Z,99353.88
2022-08-01T17:56:27.920Z,99358.78
2022-08-01T17:59:00.347Z,99357.72
2022-08-01T18:01:28.855Z,99367.72
2022-08-01T18:03:58.666Z,99361.97
2022-08-01T18:06:27.498Z,99363.25
2022-08-01T18:08:56.691Z,99365.38
2022-08-01T18:11:28.511Z,99362.75
2022-08-01T18:13:59.781Z,99355.97
2022-08-01T18:16:29.150Z,99362.75
2022-08-01T18:18:57.864Z,99365.03
2022-08-01T18:21:26.490Z,99365.66
2022-08-01T18:23:54.889Z,99362.06
2022-08-01T18:26:23.641Z,99375.00
2022-08-01T18:28:52.021Z,99376.94
2022-08-01T18:31:20.877Z,99379.81
2022-08-01T18:33:51.542Z,99386.78
2022-08-01T18:36:32.929Z,99388.41
2022-08-01T18:39:09.199Z,99388.25
2022-08-01T18:41:40.105Z,99388.88
2022-08-01T18:44:09.497Z,99382.00
2022-08-01T18:46:40.049Z,99390.09
2022-08-01T18:49:12.290Z,99402.72
2022-08-01T18:51:44.732Z,99395.78
2022-08-01T18:54:15.204Z,99399.72
2022-08-01T18:56:46.196Z,99401.72
2022-08-01T18:59:14.772Z,99402.72
2022-08-01T19:01:44.859Z,99402.38
2022-08-01T19:04:13.621Z,99403.72
2022-08-01T19:06:43.473Z,99411.31
2022-08-01T19:09:20.339Z,99415.75
2022-08-01T19:11:49.480Z,99408.91
2022-08-01T19:14:18.361Z,99411.16
2022-08-01T19:16:47.054Z,99418.56
2022-08-01T19:19:15.781Z,99418.94
2022-08-01T19:21:56.843Z,99419.69
2022-08-01T19:24:25.917Z,99419.88
2022-08-01T19:27:05.104Z,99424.00
2022-08-01T19:29:39.860Z,99423.41
2022-08-01T19:32:12.987Z,99419.03
2022-08-01T19:35:07.088Z,99422.16
2022-08-01T19:37:36.205Z,99421.22
2022-08-01T19:40:05.908Z,99422.75
2022-08-01T19:42:34.518Z,99428.97
2022-08-01T19:45:05.566Z,99426.88
2022-08-01T19:47:51.587Z,99429.34
2022-08-01T19:50:22.892Z,99429.88
2022-08-01T19:52:55.557Z,99418.78
2022-08-01T19:55:28.779Z,99417.72
2022-08-01T19:58:24.499Z,99421.59
2022-08-01T20:00:50.970Z,99422.59
2022-08-01T20:03:20.186Z,99426.09
2022-08-01T20:05:48.757Z,99425.25
2022-08-01T20:08:17.714Z,99431.59
2022-08-01T20:10:50.716Z,99425.16
2022-08-01T20:13:20.517Z,99434.75
2022-08-01T20:15:49.667Z,99431.22
2022-08-01T20:18:19.729Z,99431.59
2022-08-01T20:20:50.467Z,99434.41
2022-08-01T20:23:24.023Z,99428.31
2022-08-01T20:26:00.475Z,99436.22
2022-08-01T20:28:30.741Z,99441.63
2022-08-01T20:31:05.440Z,99434.28
2022-08-01T20:33:43.488Z,99441.06
2022-08-01T20:36:25.129Z,99427.38
2022-08-01T20:38:57.580Z,99430.91
2022-08-01T20:41:28.468Z,99426.53
2022-08-01T20:43:59.586Z,99421.38
2022-08-01T20:46:29.909Z,99428.50
2022-08-01T20:48:59.617Z,99428.91
2022-08-01T20:51:31.581Z,99424.25
2022-08-01T20:54:00.033Z,99430.44
2022-08-01T20:57:01.025Z,99432.50
2022-08-01T20:59:54.826Z,99424.59
2022-08-01T21:02:53.236Z,99430.75
2022-08-01T21:05:31.500Z,99435.47
2022-08-01T21:08:24.644Z,99442.06
2022-08-01T21:10:58.524Z,99456.22
2022-08-01T21:13:48.286Z,99440.81
2022-08-01T21:16:26.596Z,99439.00
2022-08-01T21:19:19.706Z,99443.47
2022-08-01T21:22:33.486Z,99450.06
2022-08-01T21:25:08.002Z,99447.97
2022-08-01T21:27:37.621Z,99454.38
2022-08-01T21:30:09.423Z,99450.19
2022-08-01T21:32:38.392Z,99454.69
2022-08-01T21:35:16.704Z,99455.81
2022-08-01T21:37:52.556Z,99445.31
2022-08-01T21:40:24.355Z,99449.84
2022-08-01T21:42:55.316Z,99448.09
2022-08-01T21:45:27.533Z,99455.50
2022-08-01T21:47:59.231Z,99459.44
2022-08-01T21:50:27.847Z,99459.13
2022-08-01T21:53:38.450Z,99460.03
2022-08-01T21:57:04.385Z,99454.38
2022-08-01T21:59:59.754Z,99449.59
2022-08-01T22:02:36.934Z,99460.50
2022-08-01T22:05:13.009Z,99459.88
2022-08-01T22:07:56.923Z,99460.91
2022-08-01T22:10:26.766Z,99460.25
2022-08-01T22:12:55.359Z,99471.00
2022-08-01T22:15:44.418Z,99466.38
2022-08-01T22:18:14.152Z,99470.34
2022-08-01T22:20:43.288Z,99478.53
2022-08-01T22:23:12.139Z,99471.69
2022-08-01T22:25:40.728Z,99466.13
2022-08-01T22:28:15.756Z,99463.94
2022-08-01T22:30:44.442Z,99464.59
2022-08-01T22:33:16.985Z,99464.28
2022-08-01T22:35:51.037Z,99461.13
2022-08-01T22:38:23.764Z,99461.50
2022-08-01T22:41:19.285Z,99453.81
2022-08-01T22:44:14.511Z,99466.41
2022-08-01T22:47:11.798Z,99463.44
2022-08-01T22:50:06.813Z,99468.03
2022-08-01T22:53:08.366Z,99466.16
2022-08-01T22:55:58.760Z,99464.41
2022-08-01T22:58:31.298Z,99467.78
2022-08-01T23:01:02.867Z,99468.69
2022-08-01T23:03:37.857Z,99459.03
2022-08-01T23:06:42.117Z,99466.75
2022-08-01T23:09:11.079Z,99456.84
2022-08-01T23:11:39.829Z,99463.22
2022-08-01T23:14:09.131Z,99465.84
2022-08-01T23:16:38.451Z,99462.63
2022-08-01T23:19:07.829Z,99462.84
2022-08-01T23:21:41.774Z,99463.28
2022-08-01T23:24:10.788Z,99455.66
2022-08-01T23:26:40.083Z,99456.31
2022-08-01T23:29:08.969Z,99464.88
2022-08-01T23:32:02.977Z,99461.13
2022-08-01T23:34:26.238Z,99461.19
2022-08-01T23:36:54.870Z,99474.38
2022-08-01T23:39:23.400Z,99482.75
2022-08-01T23:41:58.409Z,99472.16
2022-08-01T23:44:27.861Z,99474.66
2022-08-01T23:46:56.467Z,99471.88
2022-08-01T23:49:24.679Z,99483.69
2022-08-01T23:51:53.768Z,99477.66
2022-08-01T23:54:21.683Z,99472.47
2022-08-01T23:56:49.547Z,99480.81
2022-08-01T23:59:18.222Z,99479.34
